McDougal, AR (72441)

3:12 PM CDT on June 02, 2015 (GMT -0500)
New Friendship | | Change Station
CLOSE
Current Station
Personal Weather Station
Location: Marmaduke, AR
Elevation: 266 ft
Nearby Weather Stations

Elev 266 ft 36.17 °N, 90.41 °W | Updated 27 seconds ago

Overcast
Overcast
66.2 °F
Feels Like 66.2 °F
N
1.6
Wind Variable Wind from East
Gusts 1.6 mph

Today
High -- | Low -- °F
--% Chance of Precip.
Yesterday
High -- | Low -- °F
Precip. -- in
5:44 AM 8:14 PM
Full, 100% visible
Pressure 30.07 in
Visibility 10.0 miles
Clouds Overcast 2200 ft
Dew Point 61 °F
Humidity 83%
Rainfall 0.00 in
Snow Depth Not available.
UV 3 out of 12
Pollen 7.20 out of 12
Air Quality Not available.
Flu Activity No Activity
METAR KPOF 021953Z AUTO 03003KT 10SM OVC022 18/13 A3007 RMK AO2 SLP182 T01830128

More Conditions Fewer Conditions

Pressure 30.07 in
Visibility 10.0 miles
Clouds Overcast 2200 ft
Dew Point 61 °F
Humidity 83%
Rainfall 0.00 in
Snow Depth Not available.
UV 3 out of 12
Pollen 7.20 out of 12
Air Quality Not available.
Flu Activity No Activity
METAR KPOF 021953Z AUTO 03003KT 10SM OVC022 18/13 A3007 RMK AO2 SLP182 T01830128

More Conditions Fewer Conditions

10-Day Weather Forecast

×

Almanac

Astronomy

Jun. 02, 2015 Rise Set
Actual Time
Civil Twilight
Nautical Twilight
Astronomical Twilight
Moon
Length of Visible Light
Length of Day
Tomorrow will be .
, % of the Moon is Illuminated

Today's Extremes

State Highs State Lows

Community

WunderPhotos

Upload Photos

1,826,021 photos uploaded!

WunderBlogs® & News

Nearby

Air Quality

  Air Quality AQ Index Pollutant
Not available.

Snow Depth

Station Depth Elevation

Earthquake Activity

City Distance Mag. Time & Date
Minimum magnitude displayed is 2.5.

Coastal Water Temperatures

Place Temperature

Stations

Nearby Weather Stations

Station Location Temp. Windchill Dew Point Humidity Wind Precip. Elev Updated Type